»·PEaware :: DAL822 KGEG-KMSO

DAL822 :: KGEG-KMSO

FLIGHT INFORMATION

Flight Status: Arrived
Operator:
Delta Air Lines
More flights by this operator :: More flights under this callsign
Pilot: Max W. (2591)
Aircraft: AIRBUS A320
(A320)
More flights by this aircraft type
Origin: KGEG Spokane Intl
United States
Destination: KMSO Missoula Intl
United States
More flights between these airports :: More routes between these airports
Route: +GEG3 MLP V2 MSO
File this flight plan on PilotEdge
Remarks:
Altitude:
(Current/Filed)
25,000ft
Speed:
(Current/Filed)
450kts
Departed: 05-Jul-18 06:30 PM
Arrived: 05-Jul-18 07:00 PM
Distance/Time
Traveled:
146nm/0:30
Distance/Time
To Go:
Arrived

Flight Plot

Page will automatically refresh every two minutes.

Flight plan parsing failed; only flown route is shown


Map Options




Map Legend


Flown Route
Filed Route
Departure Airport
Arrival Airport
Navaid (VOR, NDB)
Fix

Horizontal Profiles

Position Reports

Time Latitude Longitude Heading Altitude Ground
Speed
05-Jul-18 18:05 47.624043 -117.536003 77 2364ft 0kts
05-Jul-18 18:06 47.624043 -117.536003 77 2364ft 0kts
05-Jul-18 18:07 47.624043 -117.536003 77 2364ft 0kts
05-Jul-18 18:08 47.624043 -117.536003 77 2364ft 0kts
05-Jul-18 18:09 47.624043 -117.536003 77 2364ft 0kts
05-Jul-18 18:10 47.624043 -117.536003 77 2364ft 0kts
05-Jul-18 18:11 47.624043 -117.536003 77 2364ft 0kts
05-Jul-18 18:12 47.624043 -117.536003 77 2364ft 0kts
05-Jul-18 18:14 47.624036 -117.536050 77 2364ft 1kts
05-Jul-18 18:15 47.623956 -117.536593 77 2364ft 0kts
05-Jul-18 18:16 47.623956 -117.536593 77 2364ft 0kts
05-Jul-18 18:17 47.623956 -117.536593 77 2364ft 0kts
05-Jul-18 18:18 47.623956 -117.536592 77 2364ft 0kts
05-Jul-18 18:19 47.623956 -117.536592 77 2364ft 0kts
05-Jul-18 18:20 47.623956 -117.536592 77 2364ft 0kts
05-Jul-18 18:21 47.623956 -117.536591 77 2364ft 0kts
05-Jul-18 18:22 47.623958 -117.536577 80 2364ft 0kts
05-Jul-18 18:23 47.623666 -117.536009 134 2364ft 0kts
05-Jul-18 18:24 47.624021 -117.533157 45 2364ft 15kts
05-Jul-18 18:25 47.626524 -117.529375 45 2364ft 0kts
05-Jul-18 18:26 47.629440 -117.524963 46 2364ft 18kts
05-Jul-18 18:27 47.632335 -117.520597 58 2364ft 9kts
05-Jul-18 18:28 47.632187 -117.519723 128 2364ft 0kts
05-Jul-18 18:29 47.632187 -117.519722 128 2364ft 0kts
05-Jul-18 18:30 47.631246 -117.518588 177 2364ft 6kts
05-Jul-18 18:31 47.619108 -117.536571 227 2364ft 157kts
05-Jul-18 18:32 47.579735 -117.584482 218 4666ft 185kts
05-Jul-18 18:33 47.531911 -117.579186 107 5248ft 255kts
05-Jul-18 18:34 47.530298 -117.464932 95 7047ft 285kts
05-Jul-18 18:35 47.526059 -117.345802 93 9008ft 298kts
05-Jul-18 18:36 47.521781 -117.222139 95 11239ft 305kts
05-Jul-18 18:37 47.517332 -117.095383 97 13454ft 311kts
05-Jul-18 18:38 47.512718 -116.965251 98 15396ft 322kts
05-Jul-18 18:39 47.498323 -116.834536 113 17193ft 324kts
05-Jul-18 18:40 47.471224 -116.704717 112 18954ft 334kts
05-Jul-18 18:41 47.443863 -116.568757 112 20330ft 351kts
05-Jul-18 18:42 47.415306 -116.428491 112 21763ft 360kts
05-Jul-18 18:43 47.385408 -116.282836 112 22528ft 386kts
05-Jul-18 18:44 47.352851 -116.125277 112 23007ft 418kts
05-Jul-18 18:45 47.317825 -115.956665 111 23291ft 434kts
05-Jul-18 18:46 47.282205 -115.786962 111 23310ft 434kts
05-Jul-18 18:47 47.246420 -115.617922 112 23230ft 428kts
05-Jul-18 18:48 47.211272 -115.453176 111 20817ft 416kts
05-Jul-18 18:49 47.177155 -115.294706 112 18627ft 400kts
05-Jul-18 18:50 47.144024 -115.141791 111 16492ft 386kts
05-Jul-18 18:51 47.111798 -114.994162 111 14417ft 374kts
05-Jul-18 18:52 47.080000 -114.849650 111 13918ft 372kts
05-Jul-18 18:53 47.048044 -114.705329 111 13845ft 357kts
05-Jul-18 18:54 47.020038 -114.579404 111 13791ft 301kts
05-Jul-18 18:55 46.995600 -114.470411 111 12886ft 272kts
05-Jul-18 18:56 46.970517 -114.366631 124 11129ft 264kts
05-Jul-18 18:57 46.928223 -114.281986 127 9839ft 242kts
05-Jul-18 18:58 46.893872 -114.209848 127 8961ft 204kts
05-Jul-18 18:59 46.865125 -114.137949 111 6742ft 199kts
05-Jul-18 19:00 46.877475 -114.063930 15 4419ft 187kts
05-Jul-18 19:01 46.915097 -114.089835 311 3219ft 40kts

Navigation Log

Ident Type
Flight plan parsing failed, navigation log unavailable